Carterville, MO (64835)

12:22 PM CDT on August 01, 2014 (GMT -0500)
Joplin Regional (KJLN) Elev 981 ft | 37.15 °N, 94.50 °W | Change Station

Current weather conditions updated 4 minutes ago

Mostly Cloudy
Mostly Cloudy
76 °F
Feels Like 76 °F
N
6
Wind Variable Wind from SSE

Today is forecast to be Warmer than yesterday.

Today
High -- | Low -- °F
--% Chance of Precip.
Yesterday
High -- | Low -- °F
Precip. -- in
6:22 AM 8:24 PM
Waxing Crescent, 28% visible
Pressure 30.11 in
Visibility 10.0 miles
Clouds Scattered Clouds 2300 ft
Scattered Clouds 2900 ft
Mostly Cloudy 3400 ft
Dew Point 66 °F
Humidity 71%
Rainfall 0.00 in
Snow Depth Not available.
UV 6 out of 12
Pollen 6.60 out of 12
Air Quality Not available.
Flu Activity Not available.
SPECI KJLN 011718Z 16005KT 10SM SCT023 SCT029 BKN034 24/19 A3011 RMK AO2 T02440189

More Conditions Fewer Conditions

Pressure 30.11 in
Visibility 10.0 miles
Clouds Scattered Clouds 2300 ft
Scattered Clouds 2900 ft
Mostly Cloudy 3400 ft
Dew Point 66 °F
Humidity 71%
Rainfall 0.00 in
Snow Depth Not available.
UV 6 out of 12
Pollen 6.60 out of 12
Air Quality Not available.
Flu Activity Not available.
SPECI KJLN 011718Z 16005KT 10SM SCT023 SCT029 BKN034 24/19 A3011 RMK AO2 T02440189

More Conditions Fewer Conditions

10-Day Weather Forecast

Almanac

Astronomy

Aug. 01, 2014 Rise Set
Actual Time 6:22 AM CDT 8:24 PM CDT
Civil Twilight 5:53 AM CDT 8:53 PM CDT
Nautical Twilight 5:18 AM CDT 9:28 PM CDT
Astronomical Twilight 4:40 AM CDT 10:06 PM CDT
Moon 11:38 AM CDT 11:19 PM CDT
Length of Visible Light 14h 59m
Length of Day
14h 02m
Tomorrow will be 1m 47s shorter.
Waxing Crescent, 28% of the Moon is Illuminated
Today
Waxing Crescent
Aug 3
First Quarter
Aug 10
Full
Aug 17
Last Quarter
Aug 25
New

Today's Extremes

State Highs State Lows

Community

WunderPhotos

Upload Photos

1,739,638 photos uploaded!

Nearby

Snow Depth

Station Depth Elevation
No new snow has been reported.

Earthquake Activity

City Distance Mag. Time & Date
No recent earthquake activity has been reported nearby.
Minimum magnitude displayed is 2.5.

Coastal Water Temperatures

Place Temperature
No Stations Reporting

Nearby Weather Stations

Station Location Temp. Heat Index Dew Point Humidity Wind Precip. Elev Updated Type
Mohaska, Joplin, MO 77.0 °F 79 °F 67 °F 70% East  at  3.0 mph 0.00 in / hr 1010 ft 12:09 PM CDT Normal
ESE Cherokee Co Kansas, Columbus, KS 78.8 °F 81 °F 69 °F 73% East  at  2.0 mph 0.00 in / hr 951 ft 12:08 PM CDT Normal
South east of Granby, Granby, MO 75.6 °F 77 °F 69 °F 79% SSW  at  0.0 mph 0.00 in / hr 1217 ft 12:22 PM CDT Rapid Fire
Southwest Pittsburg, Kansas, Pittsburg, KS 78.6 °F 81 °F 68 °F 75% North  at  - - / hr 935 ft 12:20 PM CDT Normal
NonFedAWOS NEOSHO AIRPORT , Neosho, MO 72 °F - 72 °F 100% ENE  at  5 mph 0.00 in / hr 1254 ft 11:15 AM CDT MADIS

Show More Stations Show Fewer Stations